< < Back
Terminal Aerodrome Forecast


Current Version              Previous Versions:   1  2  3  4  5  6  7  8  9  

Terminal Aerodrome Forecast

491
FTUS44 KBMX 302326
TAFANB
TAF
KANB 302326Z 3100/3124 35007KT P6SM SKC=



Latest METAR

870
SAUS70 KWBC 310700 RRD
MTRANB
METAR KANB 310653Z AUTO 07005KT 10SM CLR 25/18 A2998 RMK AO2 SLP138
T02500183


USA.gov is the U.S. government's official web portal to all federal, state and local government web resources and services.